Time;durP1;ratioP1;P1;durP2;ratioP2;P2;SDS_P1;SDS_P2;PMS_P1;PMS_P2;Temp;Humidity;BMP_temperature;BMP_pressure;BME280_temperature;BME280_humidity;BME280_pressure;Samples;Min_cycle;Max_cycle;Signal;HPM_P1;HPM_P2
2021/11/20 00:01:32;;;;;;;;;;;;;;;12.14;53.33;101159.38;4939272;29;20397;-75
2021/11/20 00:03:58;;;;;;;;;;;;;;;12.10;54.06;101152.88;4939358;29;19966;-76
2021/11/20 00:06:26;;;;;;;;;;;;;;;12.06;54.02;101153.56;4939271;29;19977;-75
2021/11/20 00:08:57;;;;;;;;;;;;;;;12.04;56.02;101155.91;4939655;29;19915;-76
2021/11/20 00:11:27;;;;;;;;;;;;;;;12.04;58.16;101161.47;4939321;29;19919;-76
2021/11/20 00:13:56;;;;;;;;;;;;;;;12.00;56.04;101152.19;4939321;29;20408;-75
2021/11/20 00:16:23;;;;;;;;;;;;;;;11.96;57.61;101150.44;4939575;29;20277;-76
2021/11/20 00:18:50;;;;;;;;;;;;;;;11.86;58.34;101148.91;4939363;29;19922;-75
2021/11/20 00:21:33;;;;;;;;;;;;;;;11.84;56.39;101148.47;4939244;29;19914;-76
2021/11/20 00:24:02;;;;;;;;;;;;;;;11.86;57.36;101134.16;4941198;29;19914;-76
2021/11/20 00:26:34;;;;;;;;;;;;;;;11.86;56.77;101137.75;4943854;29;19969;-75
2021/11/20 00:31:28;;;;;;;;;;;;;;;11.75;57.75;101133.78;4960556;29;19915;-75
2021/11/20 00:33:53;;;;;;;;;;;;;;;11.69;58.48;101126.81;4942876;29;19933;-75
2021/11/20 00:36:20;;;;;;;;;;;;;;;11.68;58.25;101133.56;4943014;29;19922;-76
2021/11/20 00:38:45;;;;;;;;;;;;;;;11.78;58.55;101135.88;4943424;29;20349;-76
2021/11/20 00:41:12;;;;;;;;;;;;;;;11.72;58.93;101126.13;4943311;29;19922;-76
2021/11/20 00:43:39;;;;;;;;;;;;;;;11.69;58.88;101124.03;4943204;29;19941;-75
2021/11/20 00:46:05;;;;;;;;;;;;;;;11.68;58.98;101128.78;4943400;29;20350;-76
2021/11/20 00:48:30;;;;;;;;;;;;;;;11.57;59.67;101135.16;4943383;29;19921;-75
2021/11/20 00:50:58;;;;;;;;;;;;;;;11.58;60.19;101139.56;4943086;29;19915;-76
2021/11/20 00:53:23;;;;;;;;;;;;;;;11.53;59.82;101130.28;4943337;29;20380;-76
2021/11/20 00:55:49;;;;;;;;;;;;;;;11.66;59.25;101127.50;4943516;29;19914;-75
2021/11/20 00:58:15;;;;;;;;;;;;;;;11.42;60.38;101129.09;4943274;29;19990;-75
2021/11/20 01:00:45;;;;;;;;;;;;;;;11.41;60.16;101129.44;4943849;29;20321;-75
2021/11/20 01:03:14;;;;;;;;;;;;;;;11.36;60.42;101124.91;4943855;29;20009;-75
2021/11/20 01:05:40;;;;;;;;;;;;;;;11.37;59.45;101126.53;4942942;29;19918;-75
2021/11/20 01:08:07;;;;;;;;;;;;;;;11.33;59.88;101124.78;4942872;29;19966;-75
2021/11/20 01:10:38;;;;;;;;;;;;;;;11.33;59.87;101130.34;4942783;29;20388;-75
2021/11/20 01:13:04;;;;;;;;;;;;;;;11.30;59.81;101120.72;4942833;29;19918;-75
2021/11/20 01:15:31;;;;;;;;;;;;;;;11.34;59.48;101116.06;4942738;29;20433;-75
2021/11/20 01:17:57;;;;;;;;;;;;;;;11.43;57.77;101113.19;4943729;29;20417;-75
2021/11/20 01:20:28;;;;;;;;;;;;;;;11.37;58.55;101115.38;4944372;29;19918;-76
2021/11/20 01:22:53;;;;;;;;;;;;;;;11.33;58.71;101117.22;4944633;29;19925;-75
2021/11/20 01:25:20;;;;;;;;;;;;;;;11.53;57.75;101118.31;4944907;29;20365;-75
2021/11/20 01:27:46;;;;;;;;;;;;;;;11.49;58.50;101117.38;4946218;29;19921;-75
2021/11/20 01:30:11;;;;;;;;;;;;;;;11.43;58.52;101116.78;4944174;29;19977;-75
2021/11/20 01:32:40;;;;;;;;;;;;;;;11.35;59.09;101112.16;4942431;29;20000;-75
2021/11/20 01:35:11;;;;;;;;;;;;;;;11.34;61.13;101116.06;4941508;29;19965;-75
2021/11/20 01:37:40;;;;;;;;;;;;;;;11.28;59.98;101118.25;4942192;29;19914;-75
2021/11/20 01:40:11;;;;;;;;;;;;;;;11.35;59.48;101119.69;4942052;29;19918;-75
2021/11/20 01:42:40;;;;;;;;;;;;;;;11.40;59.22;101105.50;4942216;29;19949;-75
2021/11/20 01:45:08;;;;;;;;;;;;;;;11.31;59.16;101111.19;4942132;29;19969;-75
2021/11/20 01:47:49;;;;;;;;;;;;;;;11.30;59.03;101104.00;4941929;29;20004;-76
2021/11/20 01:50:20;;;;;;;;;;;;;;;11.27;59.64;101104.69;4942009;29;19922;-75
2021/11/20 01:52:45;;;;;;;;;;;;;;;11.25;59.81;101107.00;4942574;29;20004;-75
2021/11/20 01:55:16;;;;;;;;;;;;;;;11.23;60.78;101103.75;4942382;29;19915;-75
2021/11/20 01:57:57;;;;;;;;;;;;;;;11.20;60.94;101096.91;4942452;29;19930;-75
2021/11/20 02:00:29;;;;;;;;;;;;;;;11.18;60.97;101093.63;4942817;29;19922;-76
2021/11/20 02:03:03;;;;;;;;;;;;;;;11.20;60.50;101090.53;4942741;29;19969;-75
2021/11/20 02:05:39;;;;;;;;;;;;;;;11.11;59.57;101082.25;4944881;29;20269;-76
2021/11/20 02:08:13;;;;;;;;;;;;;;;11.08;61.55;101077.38;4945090;29;19919;-75
2021/11/20 02:10:53;;;;;;;;;;;;;;;11.05;61.00;101080.03;4942872;29;20010;-76
2021/11/20 02:13:21;;;;;;;;;;;;;;;11.03;61.12;101083.19;4941201;29;19915;-75
2021/11/20 02:15:50;;;;;;;;;;;;;;;11.08;59.72;101079.34;4941651;29;20373;-75
2021/11/20 02:18:20;;;;;;;;;;;;;;;10.99;60.75;101077.47;4941445;29;19997;-75
2021/11/20 02:21:02;;;;;;;;;;;;;;;10.88;60.78;101067.94;4941089;29;19922;-75
2021/11/20 02:23:27;;;;;;;;;;;;;;;10.98;59.98;101063.91;4942022;29;19925;-75
2021/11/20 02:25:53;;;;;;;;;;;;;;;10.97;60.63;101063.09;4941617;29;20296;-76
2021/11/20 02:28:18;;;;;;;;;;;;;;;10.99;60.67;101071.91;4941609;29;20352;-75
2021/11/20 02:30:48;;;;;;;;;;;;;;;11.01;60.82;101058.44;4941611;29;19960;-75
2021/11/20 02:33:16;;;;;;;;;;;;;;;11.09;60.21;101053.13;4941266;29;20289;-76
2021/11/20 02:35:44;;;;;;;;;;;;;;;11.07;60.43;101059.03;4941006;29;19941;-75
2021/11/20 02:38:14;;;;;;;;;;;;;;;11.03;61.17;101060.91;4941468;29;19914;-75
2021/11/20 02:40:40;;;;;;;;;;;;;;;11.07;60.00;101056.25;4941488;29;19915;-75
2021/11/20 02:43:05;;;;;;;;;;;;;;;10.95;59.38;101056.22;4941279;29;20272;-75
2021/11/20 02:45:36;;;;;;;;;;;;;;;10.94;60.31;101052.63;4940523;29;20370;-75
2021/11/20 02:48:02;;;;;;;;;;;;;;;10.95;59.28;101050.66;4940206;29;19914;-75
2021/11/20 02:50:33;;;;;;;;;;;;;;;10.92;59.04;101042.97;4940805;29;20393;-75
2021/11/20 02:52:59;;;;;;;;;;;;;;;10.94;60.95;101041.50;4940808;29;19964;-75
2021/11/20 02:55:24;;;;;;;;;;;;;;;10.95;59.10;101040.31;4924923;29;19962;-75
2021/11/20 02:57:53;;;;;;;;;;;;;;;10.92;60.28;101054.13;4940668;29;19914;-74
2021/11/20 03:00:19;;;;;;;;;;;;;;;11.07;58.14;101036.75;4940412;29;19972;-75
2021/11/20 03:02:45;;;;;;;;;;;;;;;11.05;58.33;101035.47;4940746;29;19921;-75
2021/11/20 03:05:13;;;;;;;;;;;;;;;10.96;57.96;101039.16;4941056;29;19915;-75
2021/11/20 03:07:39;;;;;;;;;;;;;;;10.88;56.80;101042.88;4940276;29;20365;-75
2021/11/20 03:10:05;;;;;;;;;;;;;;;10.97;58.00;101032.47;4940463;29;20007;-75
2021/11/20 03:12:30;;;;;;;;;;;;;;;10.94;57.10;101032.31;4940352;29;19915;-75
2021/11/20 03:14:56;;;;;;;;;;;;;;;10.98;57.86;101036.88;4940300;29;19922;-75
2021/11/20 03:17:22;;;;;;;;;;;;;;;10.99;56.16;101032.91;4940465;29;19921;-75
2021/11/20 03:19:49;;;;;;;;;;;;;;;10.97;55.91;101038.03;4940427;29;19914;-75
2021/11/20 03:22:26;;;;;;;;;;;;;;;11.01;57.03;101035.34;4940435;29;20004;-75
2021/11/20 03:24:52;;;;;;;;;;;;;;;11.04;57.89;101042.22;4940471;29;20350;-75
2021/11/20 03:27:18;;;;;;;;;;;;;;;11.12;55.95;101035.72;4940189;29;19969;-75
2021/11/20 03:29:46;;;;;;;;;;;;;;;11.08;57.36;101040.34;4940490;29;19918;-74
2021/11/20 03:32:15;;;;;;;;;;;;;;;11.21;54.95;101034.47;4939993;29;19922;-74
2021/11/20 03:34:41;;;;;;;;;;;;;;;11.20;54.00;101038.41;4940459;29;19914;-74
2021/11/20 03:37:10;;;;;;;;;;;;;;;11.11;54.89;101034.91;4940072;29;19960;-75
2021/11/20 03:39:35;;;;;;;;;;;;;;;11.11;55.21;101034.09;4939968;29;19914;-74
2021/11/20 03:42:01;;;;;;;;;;;;;;;11.05;55.13;101041.03;4940664;29;19914;-75
2021/11/20 03:44:26;;;;;;;;;;;;;;;11.05;54.48;101036.28;4939947;29;20285;-75
2021/11/20 03:46:52;;;;;;;;;;;;;;;11.07;53.92;101035.94;4939862;29;20007;-74
2021/11/20 03:49:20;;;;;;;;;;;;;;;11.05;54.34;101033.50;4940677;29;20001;-75
2021/11/20 03:51:46;;;;;;;;;;;;;;;11.08;54.75;101031.97;4940032;29;19969;-74
2021/11/20 03:54:12;;;;;;;;;;;;;;;11.08;54.44;101034.78;4939871;29;19915;-75
2021/11/20 03:56:40;;;;;;;;;;;;;;;11.06;55.13;101032.34;4940043;29;20426;-75
2021/11/20 03:59:05;;;;;;;;;;;;;;;10.98;55.77;101031.28;4939189;29;20056;-75
2021/11/20 04:01:31;;;;;;;;;;;;;;;10.96;56.82;101028.03;4940344;29;20357;-75
2021/11/20 04:03:57;;;;;;;;;;;;;;;10.94;55.88;101029.53;4940063;29;19965;-75
2021/11/20 04:06:23;;;;;;;;;;;;;;;10.91;56.67;101021.88;4940255;29;19918;-75
2021/11/20 04:08:52;;;;;;;;;;;;;;;10.87;57.40;101021.75;4940212;29;19914;-75
2021/11/20 04:11:20;;;;;;;;;;;;;;;10.85;55.72;101020.47;4942020;29;19918;-75
2021/11/20 04:13:46;;;;;;;;;;;;;;;10.90;55.48;101023.84;4942220;29;19915;-75
2021/11/20 04:16:12;;;;;;;;;;;;;;;10.86;54.43;101019.31;4940095;29;19979;-74
2021/11/20 04:18:45;;;;;;;;;;;;;;;10.83;55.36;101017.22;4940029;29;19954;-75
2021/11/20 04:21:11;;;;;;;;;;;;;;;10.80;56.25;101029.84;4939706;29;19977;-75
2021/11/20 04:23:37;;;;;;;;;;;;;;;10.81;56.59;101025.91;4939441;29;20373;-75
2021/11/20 04:26:04;;;;;;;;;;;;;;;10.81;56.14;101030.66;4939276;29;19915;-75
2021/11/20 04:28:35;;;;;;;;;;;;;;;10.77;56.59;101033.34;4956688;29;19919;-75
2021/11/20 04:31:03;;;;;;;;;;;;;;;10.72;57.41;101022.41;4939504;29;20277;-75
2021/11/20 04:33:29;;;;;;;;;;;;;;;10.69;57.85;101023.09;4939451;29;19918;-75
2021/11/20 04:35:55;;;;;;;;;;;;;;;10.67;57.74;101026.22;4939557;29;19949;-75
2021/11/20 04:38:20;;;;;;;;;;;;;;;10.79;55.45;101025.44;4939665;29;19921;-74
2021/11/20 04:40:46;;;;;;;;;;;;;;;10.71;56.67;101023.56;4940215;29;19922;-74
2021/11/20 04:43:11;;;;;;;;;;;;;;;10.58;58.22;101028.25;4941212;29;19914;-75
2021/11/20 04:45:42;;;;;;;;;;;;;;;10.48;59.58;101026.72;4940482;29;19922;-75
2021/11/20 04:48:08;;;;;;;;;;;;;;;10.35;59.51;101025.06;4940808;29;19914;-75
2021/11/20 04:50:34;;;;;;;;;;;;;;;10.31;59.70;101021.31;4940044;29;19915;-75
2021/11/20 04:52:59;;;;;;;;;;;;;;;10.30;60.95;101025.25;4939307;29;19914;-75
2021/11/20 04:55:25;;;;;;;;;;;;;;;10.34;61.01;101036.53;4938859;29;19915;-75
2021/11/20 04:57:51;;;;;;;;;;;;;;;10.32;59.72;101028.50;4938975;29;19914;-75
2021/11/20 05:00:19;;;;;;;;;;;;;;;10.31;59.39;101024.09;4939583;29;19915;-76
2021/11/20 05:02:45;;;;;;;;;;;;;;;10.38;58.34;101023.53;4938748;29;19961;-75
2021/11/20 05:05:11;;;;;;;;;;;;;;;10.30;59.91;101033.59;4938721;29;20317;-74
2021/11/20 05:07:39;;;;;;;;;;;;;;;10.32;60.30;101022.94;4938995;29;19929;-75
2021/11/20 05:10:06;;;;;;;;;;;;;;;10.28;59.46;101030.38;4941071;29;19918;-74
2021/11/20 05:12:31;;;;;;;;;;;;;;;10.23;60.58;101027.75;4942506;29;19921;-75
2021/11/20 05:14:57;;;;;;;;;;;;;;;10.09;60.53;101028.00;4943053;29;19915;-75
2021/11/20 05:17:23;;;;;;;;;;;;;;;10.07;60.86;101029.53;4942435;29;19914;-74
2021/11/20 05:19:51;;;;;;;;;;;;;;;10.07;60.73;101037.88;4942849;29;19918;-74
2021/11/20 05:22:17;;;;;;;;;;;;;;;10.06;58.91;101037.03;4942951;29;19914;-75
2021/11/20 05:24:42;;;;;;;;;;;;;;;10.11;60.82;101033.22;4942996;29;20310;-74
2021/11/20 05:27:08;;;;;;;;;;;;;;;10.10;59.90;101034.38;4942237;29;20358;-75
2021/11/20 05:30:10;;;;;;;;;;;;;;;10.10;60.08;101042.72;4942221;29;19987;-74
2021/11/20 05:32:28;;;;;;;;;;;;;;;10.19;58.03;101037.94;4955342;29;19925;-75
2021/11/20 05:34:56;;;;;;;;;;;;;;;10.22;57.21;101037.22;4942459;29;19918;-75
2021/11/20 05:37:23;;;;;;;;;;;;;;;10.23;57.70;101044.44;4941895;29;19926;-75
2021/11/20 05:39:49;;;;;;;;;;;;;;;10.23;58.99;101038.88;4942735;29;19965;-75
2021/11/20 05:42:20;;;;;;;;;;;;;;;10.26;57.50;101038.22;4942627;29;19915;-75
2021/11/20 05:44:48;;;;;;;;;;;;;;;10.26;56.75;101038.22;4942843;29;19966;-75
2021/11/20 05:47:17;;;;;;;;;;;;;;;10.27;59.42;101039.84;4942187;29;19915;-75
2021/11/20 05:49:43;;;;;;;;;;;;;;;10.26;59.14;101032.66;4942042;29;19918;-75
2021/11/20 05:52:11;;;;;;;;;;;;;;;10.24;59.75;101037.75;4941740;29;20282;-75
2021/11/20 05:54:36;;;;;;;;;;;;;;;10.22;61.14;101045.56;4941316;29;19920;-75
2021/11/20 05:57:02;;;;;;;;;;;;;;;10.36;58.00;101046.16;4941253;29;19914;-75
2021/11/20 05:59:27;;;;;;;;;;;;;;;10.23;60.50;101050.00;4941532;29;19915;-73
2021/11/20 06:01:53;;;;;;;;;;;;;;;10.16;61.40;101049.72;4942099;29;20013;-75
2021/11/20 06:04:19;;;;;;;;;;;;;;;10.19;62.16;101054.63;4942123;29;19921;-75
2021/11/20 06:06:45;;;;;;;;;;;;;;;10.58;59.65;101050.53;4942828;29;19921;-75
2021/11/20 06:09:10;;;;;;;;;;;;;;;11.11;58.48;101046.03;4942282;29;20003;-75
2021/11/20 06:11:36;;;;;;;;;;;;;;;11.68;57.00;101044.34;4941923;29;19960;-76
2021/11/20 06:14:02;;;;;;;;;;;;;;;12.19;55.18;101050.31;4942007;29;20001;-75
2021/11/20 06:16:27;;;;;;;;;;;;;;;12.59;52.36;101056.72;4941667;29;19919;-75
2021/11/20 06:18:56;;;;;;;;;;;;;;;13.08;52.34;101048.06;4941652;29;19919;-75
2021/11/20 06:21:21;;;;;;;;;;;;;;;13.25;50.45;101058.09;4941225;29;19915;-75
2021/11/20 06:23:46;;;;;;;;;;;;;;;13.32;50.65;101049.13;4942447;29;19921;-75
2021/11/20 06:26:12;;;;;;;;;;;;;;;13.51;50.41;101051.97;4941462;29;20313;-75
2021/11/20 06:28:41;;;;;;;;;;;;;;;13.79;50.00;101049.06;4941473;29;20369;-75
2021/11/20 06:31:07;;;;;;;;;;;;;;;14.15;49.14;101049.88;4941446;29;19965;-75
2021/11/20 06:33:33;;;;;;;;;;;;;;;14.50;48.88;101061.06;4941526;29;20067;-76
2021/11/20 06:36:00;;;;;;;;;;;;;;;14.81;46.58;101056.50;4941755;29;19925;-76
2021/11/20 06:38:29;;;;;;;;;;;;;;;15.30;47.13;101059.41;4942125;29;20016;-75
2021/11/20 06:41:00;;;;;;;;;;;;;;;15.69;46.30;101054.47;4941237;29;19914;-75
2021/11/20 06:43:29;;;;;;;;;;;;;;;16.24;45.29;101063.31;4940365;29;19961;-75
2021/11/20 06:45:58;;;;;;;;;;;;;;;16.63;44.17;101059.38;4940137;29;19961;-75
2021/11/20 06:48:27;;;;;;;;;;;;;;;16.93;43.11;101064.97;4940006;29;19921;-75
2021/11/20 06:50:53;;;;;;;;;;;;;;;17.37;41.98;101053.75;4940331;29;19915;-76
2021/11/20 06:53:22;;;;;;;;;;;;;;;17.71;42.71;101054.44;4939994;29;20423;-75
2021/11/20 06:55:48;;;;;;;;;;;;;;;18.13;41.69;101050.31;4939888;29;19954;-76
2021/11/20 07:00:44;;;;;;;;;;;;;;;19.08;39.15;101068.06;4957412;29;20138;-76
2021/11/20 07:03:17;;;;;;;;;;;;;;;19.32;39.10;101061.63;4939797;29;20005;-76
2021/11/20 07:05:47;;;;;;;;;;;;;;;19.63;37.50;101059.25;4939568;29;19914;-76
2021/11/20 07:08:16;;;;;;;;;;;;;;;20.05;35.89;101066.06;4940200;29;19966;-76
2021/11/20 07:10:45;;;;;;;;;;;;;;;20.30;34.92;101060.38;4940308;29;19965;-76
2021/11/20 07:13:13;;;;;;;;;;;;;;;20.88;33.79;101067.44;4939202;29;19921;-76
2021/11/20 07:15:43;;;;;;;;;;;;;;;21.13;32.91;101065.22;4940334;29;19922;-77
2021/11/20 07:18:11;;;;;;;;;;;;;;;21.37;33.15;101060.66;4939961;29;19915;-76
2021/11/20 07:20:38;;;;;;;;;;;;;;;21.69;33.33;101059.59;4939672;29;20044;-76
2021/11/20 07:23:04;;;;;;;;;;;;;;;21.77;31.84;101069.63;4939788;29;19922;-76
2021/11/20 07:25:30;;;;;;;;;;;;;;;22.25;30.92;101060.25;4940059;29;19914;-76
2021/11/20 07:27:58;;;;;;;;;;;;;;;22.57;29.69;101065.56;4939532;29;20337;-76
2021/11/20 07:30:25;;;;;;;;;;;;;;;22.57;28.82;101064.75;4940206;29;19918;-76
2021/11/20 07:32:55;;;;;;;;;;;;;;;22.66;28.46;101073.56;4938468;29;19918;-76
2021/11/20 07:35:25;;;;;;;;;;;;;;;22.90;27.16;101069.59;4939444;29;19969;-76
2021/11/20 07:37:57;;;;;;;;;;;;;;;22.79;28.83;101071.75;4939263;29;19926;-76
2021/11/20 07:40:23;;;;;;;;;;;;;;;22.87;27.20;101064.75;4939843;29;19921;-76
2021/11/20 07:42:49;;;;;;;;;;;;;;;22.94;27.92;101063.88;4939608;29;20346;-76
2021/11/20 07:45:14;;;;;;;;;;;;;;;23.02;28.76;101061.78;4939652;29;19953;-76
2021/11/20 07:47:46;;;;;;;;;;;;;;;22.56;25.95;101063.16;4956075;29;19921;-76
2021/11/20 07:50:17;;;;;;;;;;;;;;;22.85;25.99;101064.41;4939124;29;20032;-76
2021/11/20 07:52:44;;;;;;;;;;;;;;;21.89;30.70;101069.13;4938994;29;19925;-79
2021/11/20 07:55:11;;;;;;;;;;;;;;;22.27;30.10;101068.38;4939020;29;19953;-76
2021/11/20 07:57:37;;;;;;;;;;;;;;;21.54;31.66;101063.75;4939062;29;19994;-76
2021/11/20 08:00:05;;;;;;;;;;;;;;;21.81;35.01;101064.72;4939148;29;19945;-76
2021/11/20 08:02:33;;;;;;;;;;;;;;;21.17;36.01;101068.03;4938950;29;20289;-75
2021/11/20 08:05:02;;;;;;;;;;;;;;;21.22;35.12;101066.81;4939356;29;19914;-76
2021/11/20 08:07:32;;;;;;;;;;;;;;;21.67;34.87;101070.50;4938768;29;19915;-75
2021/11/20 08:09:57;;;;;;;;;;;;;;;22.12;34.23;101070.53;4938499;29;19914;-75
2021/11/20 08:12:23;;;;;;;;;;;;;;;22.38;34.17;101075.50;4938654;29;19925;-75
2021/11/20 08:14:48;;;;;;;;;;;;;;;22.25;33.38;101071.59;4939003;29;19915;-76
2021/11/20 08:17:14;;;;;;;;;;;;;;;21.95;34.49;101069.47;4938687;29;20273;-75
2021/11/20 08:19:45;;;;;;;;;;;;;;;21.35;35.51;101073.59;4938510;29;20022;-75
2021/11/20 08:22:10;;;;;;;;;;;;;;;21.57;35.04;101082.72;4938807;29;19981;-75
2021/11/20 08:24:36;;;;;;;;;;;;;;;21.57;35.61;101071.41;4938289;29;20366;-75
2021/11/20 08:27:02;;;;;;;;;;;;;;;21.05;36.03;101072.16;4937965;29;19936;-75
2021/11/20 08:29:32;;;;;;;;;;;;;;;21.03;36.49;101070.94;4938350;29;19973;-75
2021/11/20 08:32:00;;;;;;;;;;;;;;;20.89;36.98;101080.34;4938551;29;20361;-75
2021/11/20 08:34:28;;;;;;;;;;;;;;;20.92;36.25;101077.47;4938305;29;19914;-75
2021/11/20 08:37:00;;;;;;;;;;;;;;;21.68;34.58;101086.31;4938189;29;20017;-75
2021/11/20 08:39:26;;;;;;;;;;;;;;;21.67;35.60;101090.34;4938554;29;20234;-75
2021/11/20 08:41:58;;;;;;;;;;;;;;;22.22;34.99;101073.25;4938261;29;19915;-75
2021/11/20 08:44:24;;;;;;;;;;;;;;;22.43;34.30;101077.88;4939755;29;19918;-75
2021/11/20 08:46:52;;;;;;;;;;;;;;;22.85;33.19;101075.75;4959032;29;20362;-75
2021/11/20 08:49:18;;;;;;;;;;;;;;;22.60;31.59;101070.38;4942659;29;20274;-75
2021/11/20 08:51:46;;;;;;;;;;;;;;;22.52;29.38;101063.19;4941796;29;19918;-76
2021/11/20 08:54:15;;;;;;;;;;;;;;;22.77;30.06;101073.41;4941862;29;19921;-75
2021/11/20 08:56:42;;;;;;;;;;;;;;;22.93;29.56;101073.63;4941592;29;19914;-75
2021/11/20 08:59:09;;;;;;;;;;;;;;;22.41;28.79;101063.31;4941753;29;19922;-75
2021/11/20 09:01:39;;;;;;;;;;;;;;;22.06;28.54;101063.69;4941704;29;20309;-76
2021/11/20 09:04:05;;;;;;;;;;;;;;;22.86;28.46;101059.53;4941765;29;19918;-75
2021/11/20 09:06:35;;;;;;;;;;;;;;;23.29;27.84;101054.06;4942190;29;20310;-75
2021/11/20 09:09:16;;;;;;;;;;;;;;;23.67;26.94;101060.34;4941581;29;19915;-76
2021/11/20 09:11:41;;;;;;;;;;;;;;;23.79;27.91;101053.25;4941933;29;20261;-75
2021/11/20 09:14:12;;;;;;;;;;;;;;;23.59;26.44;101055.97;4942386;29;19921;-75
2021/11/20 09:16:38;;;;;;;;;;;;;;;22.84;26.83;101051.41;4941585;29;20005;-75
2021/11/20 09:19:05;;;;;;;;;;;;;;;23.14;27.24;101058.34;4941616;29;19949;-75
2021/11/20 09:21:38;;;;;;;;;;;;;;;23.19;27.85;101055.00;4941504;29;19918;-76
2021/11/20 09:24:08;;;;;;;;;;;;;;;22.50;27.32;101045.81;4941295;29;19919;-75
2021/11/20 09:26:36;;;;;;;;;;;;;;;22.93;26.97;101048.09;4941343;29;19974;-75
2021/11/20 09:29:02;;;;;;;;;;;;;;;23.50;26.79;101039.50;4941430;29;19914;-74
2021/11/20 09:31:29;;;;;;;;;;;;;;;23.40;27.28;101046.16;4941674;29;19921;-75
2021/11/20 09:33:57;;;;;;;;;;;;;;;23.51;26.56;101041.09;4941010;29;20001;-73
2021/11/20 09:36:24;;;;;;;;;;;;;;;23.14;27.01;101035.63;4941611;29;19914;-76
2021/11/20 09:38:49;;;;;;;;;;;;;;;22.98;27.90;101022.88;4941279;29;19921;-75
2021/11/20 09:41:19;;;;;;;;;;;;;;;22.48;28.60;101028.41;4941547;29;19914;-75
2021/11/20 09:43:46;;;;;;;;;;;;;;;22.83;28.55;101023.47;4940928;29;19921;-75
2021/11/20 09:46:18;;;;;;;;;;;;;;;22.49;29.28;101019.47;4941102;29;19918;-75
2021/11/20 09:48:46;;;;;;;;;;;;;;;22.85;29.28;101013.34;4940897;29;19934;-75
2021/11/20 09:51:31;;;;;;;;;;;;;;;22.90;29.26;101004.34;4941602;29;19966;-75
2021/11/20 09:54:00;;;;;;;;;;;;;;;23.65;28.34;101008.03;4927226;29;19948;-75
2021/11/20 09:56:28;;;;;;;;;;;;;;;24.12;27.92;101002.28;4940703;29;20338;-76
2021/11/20 09:58:58;;;;;;;;;;;;;;;23.92;28.22;100994.56;4940765;29;19965;-77
2021/11/20 10:01:32;;;;;;;;;;;;;;;23.50;27.68;100996.91;4941566;29;19918;-74
2021/11/20 10:04:01;;;;;;;;;;;;;;;23.86;27.20;100984.91;4940781;29;19914;-74
2021/11/20 10:06:31;;;;;;;;;;;;;;;24.18;27.68;100989.16;4940701;29;19922;-76
2021/11/20 10:09:23;;;;;;;;;;;;;;;24.50;27.22;100983.66;4941297;29;19921;-77
2021/11/20 10:11:53;;;;;;;;;;;;;;;24.54;26.50;100978.66;4936669;29;19953;-75
2021/11/20 10:14:22;;;;;;;;;;;;;;;24.14;26.51;100975.03;4941531;29;19921;-74
2021/11/20 10:16:52;;;;;;;;;;;;;;;24.10;26.79;100973.50;4940460;29;19922;-75
2021/11/20 10:19:21;;;;;;;;;;;;;;;23.65;26.05;100973.94;4924983;29;19919;-75
2021/11/20 10:21:58;;;;;;;;;;;;;;;23.44;26.55;100963.75;4940086;29;20356;-74
2021/11/20 10:24:38;;;;;;;;;;;;;;;23.53;26.45;100961.94;4940485;29;19918;-75
2021/11/20 10:27:15;;;;;;;;;;;;;;;23.49;26.46;100958.38;4940222;29;19990;-75
2021/11/20 10:29:59;;;;;;;;;;;;;;;23.45;26.70;100954.81;4940384;29;20373;-74
2021/11/20 10:32:30;;;;;;;;;;;;;;;23.61;26.05;100951.28;4939869;29;19965;-75
2021/11/20 10:35:01;;;;;;;;;;;;;;;23.17;25.62;100938.25;4939993;29;19914;-75
2021/11/20 10:37:37;;;;;;;;;;;;;;;23.50;26.67;100940.09;4940524;29;19965;-74
2021/11/20 10:40:08;;;;;;;;;;;;;;;23.62;25.72;100932.97;4940020;29;20021;-75
2021/11/20 10:42:38;;;;;;;;;;;;;;;24.05;25.87;100932.16;4939910;29;19970;-75
2021/11/20 10:45:09;;;;;;;;;;;;;;;23.29;25.90;100931.97;4939981;29;19918;-75
2021/11/20 10:47:39;;;;;;;;;;;;;;;24.03;26.01;100932.59;4940163;29;19918;-75
2021/11/20 10:50:15;;;;;;;;;;;;;;;24.21;25.17;100925.75;4956640;29;19921;-74
2021/11/20 10:52:59;;;;;;;;;;;;;;;23.57;25.41;100921.31;4940238;29;20048;-74
2021/11/20 10:55:27;;;;;;;;;;;;;;;22.36;26.67;100921.22;4939569;29;19914;-74
2021/11/20 10:57:53;;;;;;;;;;;;;;;22.36;27.62;100924.06;4939471;29;19956;-75
2021/11/20 11:00:36;;;;;;;;;;;;;;;22.64;27.05;100922.88;4940263;29;19915;-75
2021/11/20 11:03:21;;;;;;;;;;;;;;;22.66;27.10;100914.72;4939931;29;20029;-75
2021/11/20 11:05:56;;;;;;;;;;;;;;;22.31;26.98;100904.69;4939423;29;19918;-75
2021/11/20 11:08:22;;;;;;;;;;;;;;;22.01;26.78;100902.66;4939079;29;20009;-75
2021/11/20 11:10:54;;;;;;;;;;;;;;;22.23;26.60;100904.78;4940279;29;20388;-76
2021/11/20 11:13:32;;;;;;;;;;;;;;;21.91;26.96;100905.19;4939101;29;19914;-75
2021/11/20 11:16:16;;;;;;;;;;;;;;;22.44;26.88;100898.03;4939871;29;19937;-74
2021/11/20 11:19:19;;;;;;;;;;;;;;;22.28;26.60;100906.38;4939196;29;19914;-74
2021/11/20 11:21:45;;;;;;;;;;;;;;;22.28;26.35;100892.19;4863562;29;20398;-74
2021/11/20 11:24:28;;;;;;;;;;;;;;;22.60;26.19;100891.72;4924217;29;19914;-75
2021/11/20 11:27:22;;;;;;;;;;;;;;;22.97;26.27;100884.28;4938962;29;19926;-74
2021/11/20 11:29:58;;;;;;;;;;;;;;;22.58;27.01;100879.97;4872213;29;19923;-75
2021/11/20 11:32:33;;;;;;;;;;;;;;;22.75;28.61;100878.13;4938927;29;19922;-75
2021/11/20 11:35:04;;;;;;;;;;;;;;;22.55;29.23;100869.50;4939269;29;20020;-75
2021/11/20 11:37:48;;;;;;;;;;;;;;;22.55;29.62;100871.56;4939098;29;19914;-74
2021/11/20 11:40:23;;;;;;;;;;;;;;;22.44;29.05;100863.19;4939943;29;19918;-76
2021/11/20 11:43:11;;;;;;;;;;;;;;;22.15;29.97;100865.63;4938624;29;19921;-76
2021/11/20 11:45:46;;;;;;;;;;;;;;;21.69;29.94;100865.00;4904146;29;19915;-74
2021/11/20 11:48:36;;;;;;;;;;;;;;;21.81;30.52;100854.31;4938786;29;19921;-74
2021/11/20 11:51:01;;;;;;;;;;;;;;;21.74;30.22;100854.44;4939071;29;20332;-75
2021/11/20 11:53:45;;;;;;;;;;;;;;;21.83;29.39;100855.50;4938577;29;19940;-75
2021/11/20 11:56:25;;;;;;;;;;;;;;;21.80;29.83;100850.69;4938666;29;19932;-75
2021/11/20 11:58:51;;;;;;;;;;;;;;;21.30;30.73;100842.75;4938626;29;19914;-75
2021/11/20 12:01:21;;;;;;;;;;;;;;;21.34;30.92;100831.41;4939069;29;19922;-75
2021/11/20 12:03:59;;;;;;;;;;;;;;;21.47;31.38;100840.97;4938629;29;20027;-75
2021/11/20 12:06:33;;;;;;;;;;;;;;;21.75;30.80;100831.34;4938290;29;19915;-75
2021/11/20 12:09:25;;;;;;;;;;;;;;;21.80;30.52;100830.88;4938731;29;20139;-75
2021/11/20 12:11:51;;;;;;;;;;;;;;;21.81;30.08;100826.00;4934874;29;19914;-76
2021/11/20 12:14:34;;;;;;;;;;;;;;;21.90;30.31;100829.94;4939873;29;20380;-75
2021/11/20 12:17:18;;;;;;;;;;;;;;;21.84;30.35;100819.47;4939266;29;20277;-76
2021/11/20 12:19:52;;;;;;;;;;;;;;;22.13;30.06;100817.88;4938489;29;19926;-75
2021/11/20 12:22:45;;;;;;;;;;;;;;;22.14;29.62;100821.53;4939582;29;20442;-75
2021/11/20 12:25:20;;;;;;;;;;;;;;;21.71;32.04;100820.03;4938612;29;19949;-75
2021/11/20 12:27:54;;;;;;;;;;;;;;;22.08;31.90;100814.72;4938376;29;20270;-75
2021/11/20 12:30:29;;;;;;;;;;;;;;;21.90;32.11;100815.75;4938680;29;19931;-75
2021/11/20 12:33:13;;;;;;;;;;;;;;;21.59;32.61;100814.16;4938454;29;19925;-75
2021/11/20 12:35:57;;;;;;;;;;;;;;;21.32;34.09;100795.03;4938936;29;20408;-75
2021/11/20 12:38:41;;;;;;;;;;;;;;;21.65;35.76;100807.59;4939190;29;20412;-76
2021/11/20 12:41:25;;;;;;;;;;;;;;;21.48;35.55;100802.94;4938535;29;19915;-75
2021/11/20 12:44:00;;;;;;;;;;;;;;;21.80;35.37;100791.22;4938566;29;19960;-76
2021/11/20 12:46:25;;;;;;;;;;;;;;;21.80;35.48;100799.72;4938555;29;19965;-76
2021/11/20 12:48:58;;;;;;;;;;;;;;;21.95;34.81;100794.66;4939314;29;19919;-75
2021/11/20 12:51:46;;;;;;;;;;;;;;;21.92;33.75;100793.47;4938818;29;19964;-76
2021/11/20 12:54:24;;;;;;;;;;;;;;;21.98;33.89;100780.41;4903152;29;19970;-76